createdAt,value
2018-10-18T00:00:23.291Z,51.20
2018-10-18T00:02:51.476Z,52.13
2018-10-18T00:05:19.618Z,55.73
2018-10-18T00:07:47.786Z,51.47
2018-10-18T00:10:15.930Z,55.63
2018-10-18T00:12:44.079Z,49.57
2018-10-18T00:15:12.359Z,54.70
2018-10-18T00:17:47.478Z,57.50
2018-10-18T00:20:16.639Z,55.13
2018-10-18T00:22:45.281Z,54.63
2018-10-18T00:25:13.750Z,56.03
2018-10-18T00:27:41.921Z,56.37
2018-10-18T00:30:12.007Z,53.40
2018-10-18T00:32:40.453Z,54.53
2018-10-18T00:35:08.673Z,50.97
2018-10-18T00:37:37.271Z,54.97
2018-10-18T00:40:05.934Z,52.00
2018-10-18T00:42:34.134Z,51.67
2018-10-18T00:45:02.311Z,60.40
2018-10-18T00:47:30.477Z,50.53
2018-10-18T00:49:58.659Z,55.70
2018-10-18T00:52:26.779Z,54.50
2018-10-18T00:54:54.952Z,55.03
2018-10-18T00:57:23.110Z,50.57
2018-10-18T00:59:51.307Z,59.00
2018-10-18T01:02:19.499Z,53.73
2018-10-18T01:04:47.583Z,65.73
2018-10-18T01:07:15.810Z,57.67
2018-10-18T01:09:44.030Z,53.67
2018-10-18T01:12:12.246Z,58.17
2018-10-18T01:14:40.330Z,61.70
2018-10-18T01:17:08.472Z,62.27
2018-10-18T01:19:37.721Z,54.70
2018-10-18T01:22:06.911Z,65.50
2018-10-18T01:24:36.026Z,62.63
2018-10-18T01:27:04.351Z,59.07
2018-10-18T01:29:32.521Z,55.97
2018-10-18T01:32:00.688Z,58.53
2018-10-18T01:34:28.939Z,51.80
2018-10-18T01:36:57.126Z,57.73
2018-10-18T01:39:25.287Z,52.67
2018-10-18T01:41:53.473Z,56.83
2018-10-18T01:44:21.670Z,59.07
2018-10-18T01:46:49.851Z,51.40
2018-10-18T01:49:18.035Z,48.47
2018-10-18T01:51:46.198Z,53.93
2018-10-18T01:54:14.460Z,52.03
2018-10-18T01:56:42.527Z,53.17
2018-10-18T01:59:10.681Z,50.10
2018-10-18T02:01:38.844Z,51.10
2018-10-18T02:04:07.059Z,50.97
2018-10-18T02:06:35.230Z,30.97
2018-10-18T02:09:03.564Z,50.97
2018-10-18T02:11:31.720Z,44.30
2018-10-18T02:13:59.876Z,44.17
2018-10-18T02:16:28.102Z,47.80
2018-10-18T02:18:56.287Z,52.53
2018-10-18T02:21:24.421Z,47.53
2018-10-18T02:23:52.621Z,47.57
2018-10-18T02:26:20.767Z,46.70
2018-10-18T02:28:48.903Z,44.33
2018-10-18T02:31:17.059Z,45.27
2018-10-18T02:33:45.275Z,41.60
2018-10-18T02:36:13.498Z,44.60
2018-10-18T02:38:41.684Z,51.87
2018-10-18T02:41:09.838Z,51.77
2018-10-18T02:43:37.985Z,46.60
2018-10-18T02:46:06.151Z,45.37
2018-10-18T02:48:34.303Z,46.73
2018-10-18T02:51:02.488Z,43.20
2018-10-18T02:53:30.626Z,48.67
2018-10-18T02:55:58.781Z,49.70
2018-10-18T02:58:26.947Z,51.43
2018-10-18T03:00:55.123Z,49.50
2018-10-18T03:03:23.279Z,43.10
2018-10-18T03:05:51.423Z,47.30
2018-10-18T03:08:19.587Z,41.73
2018-10-18T03:10:47.795Z,45.37
2018-10-18T03:13:15.939Z,57.23
2018-10-18T03:15:44.095Z,44.80
2018-10-18T03:18:12.330Z,43.73
2018-10-18T03:20:40.494Z,43.90
2018-10-18T03:23:08.655Z,43.47
2018-10-18T03:25:36.849Z,48.00
2018-10-18T03:28:05.111Z,44.00
2018-10-18T03:30:33.278Z,46.67
2018-10-18T03:33:01.455Z,44.63
2018-10-18T03:35:29.598Z,52.00
2018-10-18T03:37:57.753Z,46.77
2018-10-18T03:40:25.910Z,55.03
2018-10-18T03:42:54.088Z,46.97
2018-10-18T03:45:22.247Z,55.50
2018-10-18T03:47:50.411Z,54.00
2018-10-18T03:50:18.571Z,46.70
2018-10-18T03:52:46.766Z,49.93
2018-10-18T03:55:14.947Z,50.17
2018-10-18T03:57:43.146Z,46.57
2018-10-18T04:00:11.361Z,52.67
2018-10-18T04:02:39.434Z,46.63
2018-10-18T04:05:08.403Z,50.13
2018-10-18T04:07:36.665Z,48.40
2018-10-18T04:10:05.318Z,46.63
2018-10-18T04:12:33.563Z,44.83
2018-10-18T04:15:01.694Z,47.00
2018-10-18T04:17:29.895Z,50.73
2018-10-18T04:19:58.034Z,48.33
2018-10-18T04:22:26.219Z,49.17
2018-10-18T04:24:54.382Z,47.80
2018-10-18T04:27:22.527Z,47.90
2018-10-18T04:29:50.703Z,46.47
2018-10-18T04:32:18.851Z,51.40
2018-10-18T04:34:47.079Z,47.30
2018-10-18T04:37:15.242Z,54.90
2018-10-18T04:39:43.367Z,48.97
2018-10-18T04:42:11.578Z,49.50
2018-10-18T04:44:39.754Z,43.00
2018-10-18T04:47:07.931Z,45.17
2018-10-18T04:49:36.079Z,46.80
2018-10-18T04:52:04.226Z,48.70
2018-10-18T04:54:32.418Z,42.90
2018-10-18T04:57:00.666Z,44.60
2018-10-18T04:59:28.750Z,47.10
2018-10-18T05:01:57.010Z,44.43
2018-10-18T05:04:25.150Z,42.40
2018-10-18T05:06:53.331Z,50.47
2018-10-18T05:09:21.479Z,47.67
2018-10-18T05:11:49.647Z,47.83
2018-10-18T05:14:17.796Z,40.70
2018-10-18T05:16:45.956Z,44.47
2018-10-18T05:19:14.214Z,33.00
2018-10-18T05:21:42.414Z,42.03
2018-10-18T05:24:10.584Z,36.33
2018-10-18T05:26:38.778Z,33.17
2018-10-18T05:29:06.936Z,29.67
2018-10-18T05:31:35.179Z,29.40
2018-10-18T05:34:03.293Z,27.90
2018-10-18T05:36:31.433Z,25.67
2018-10-18T05:38:59.588Z,29.20
2018-10-18T05:41:27.796Z,29.57
2018-10-18T05:43:55.971Z,28.93
2018-10-18T05:46:24.115Z,27.23
2018-10-18T05:48:52.313Z,28.73
2018-10-18T05:51:20.484Z,26.40
2018-10-18T05:53:48.781Z,33.17
2018-10-18T05:56:16.798Z,27.20
2018-10-18T05:58:44.954Z,30.63
2018-10-18T06:01:13.142Z,29.57
2018-10-18T06:03:41.236Z,27.97
2018-10-18T06:06:09.386Z,32.77
2018-10-18T06:08:37.563Z,27.60
2018-10-18T06:11:17.347Z,27.47
2018-10-18T06:13:45.527Z,26.47
2018-10-18T06:16:13.697Z,29.27
2018-10-18T06:18:41.895Z,26.47
2018-10-18T06:21:10.103Z,32.20
2018-10-18T06:23:38.239Z,30.53
2018-10-18T06:26:06.636Z,35.13
2018-10-18T06:28:34.834Z,32.37
2018-10-18T06:31:03.032Z,33.93
2018-10-18T06:33:31.212Z,31.83
2018-10-18T06:35:59.453Z,30.27
2018-10-18T06:38:27.615Z,29.97
2018-10-18T06:40:55.769Z,27.20
2018-10-18T06:43:23.919Z,26.37
2018-10-18T06:45:52.203Z,32.53
2018-10-18T06:48:20.373Z,30.40
2018-10-18T06:50:48.554Z,30.13
2018-10-18T06:53:16.698Z,25.50
2018-10-18T06:55:44.954Z,28.27
2018-10-18T06:58:13.098Z,25.60
2018-10-18T07:00:41.279Z,25.50
2018-10-18T07:03:09.462Z,24.83
2018-10-18T07:05:37.688Z,28.60
2018-10-18T07:08:05.838Z,25.20
2018-10-18T07:10:33.985Z,26.97
2018-10-18T07:13:02.267Z,21.70
2018-10-18T07:15:30.422Z,22.43
2018-10-18T07:17:58.585Z,22.90
2018-10-18T07:20:26.788Z,21.47
2018-10-18T07:22:54.979Z,22.53
2018-10-18T07:25:23.243Z,27.47
2018-10-18T07:27:51.327Z,23.90
2018-10-18T07:30:19.581Z,25.30
2018-10-18T07:32:47.657Z,22.57
2018-10-18T07:35:15.842Z,21.23
2018-10-18T07:37:43.990Z,21.53
2018-10-18T07:40:13.938Z,19.63
2018-10-18T07:42:42.147Z,20.70
2018-10-18T07:45:11.355Z,30.50
2018-10-18T07:47:39.652Z,17.87
2018-10-18T07:50:07.845Z,19.63
2018-10-18T07:52:36.406Z,16.87
2018-10-18T07:55:05.083Z,19.33
2018-10-18T07:57:33.234Z,14.80
2018-10-18T08:00:01.507Z,16.40
2018-10-18T08:02:29.566Z,16.30
2018-10-18T08:04:57.728Z,17.90
2018-10-18T08:07:25.915Z,17.23
2018-10-18T08:09:54.098Z,16.70
2018-10-18T08:12:22.219Z,17.70
2018-10-18T08:14:50.379Z,17.97
2018-10-18T08:17:18.549Z,12.43
2018-10-18T08:19:46.666Z,15.37
2018-10-18T08:22:14.793Z,15.73
2018-10-18T08:24:42.946Z,16.30
2018-10-18T08:27:11.157Z,14.00
2018-10-18T08:29:39.294Z,16.60
2018-10-18T08:32:07.447Z,16.53
2018-10-18T08:34:35.599Z,16.60
2018-10-18T08:37:03.839Z,14.33
2018-10-18T08:39:31.946Z,14.60
2018-10-18T08:42:00.091Z,14.70
2018-10-18T08:44:28.275Z,12.23
2018-10-18T08:46:56.370Z,9.53
2018-10-18T08:49:24.510Z,14.00
2018-10-18T08:51:52.642Z,12.67
2018-10-18T08:54:20.806Z,21.20
2018-10-18T08:56:49.006Z,11.80
2018-10-18T08:59:17.189Z,12.87
2018-10-18T09:01:45.571Z,8.57
2018-10-18T09:04:13.429Z,8.37
2018-10-18T09:06:41.590Z,13.60
2018-10-18T09:09:10.106Z,7.00
2018-10-18T09:11:38.219Z,9.20
2018-10-18T09:14:06.835Z,7.60
2018-10-18T09:16:34.969Z,10.80
2018-10-18T09:19:03.472Z,10.67
2018-10-18T09:21:31.628Z,8.93
2018-10-18T09:23:59.768Z,9.40
2018-10-18T09:26:27.913Z,9.00
2018-10-18T09:28:56.060Z,8.87
2018-10-18T09:31:24.243Z,10.13
2018-10-18T09:33:52.414Z,7.00
2018-10-18T09:36:20.591Z,5.80
2018-10-18T09:38:48.975Z,11.17
2018-10-18T09:41:17.159Z,11.53
2018-10-18T09:43:45.310Z,7.20
2018-10-18T09:46:13.457Z,10.40
2018-10-18T09:48:41.595Z,6.27
2018-10-18T09:51:09.769Z,8.07
2018-10-18T09:53:37.946Z,8.93
2018-10-18T09:56:06.142Z,6.97
2018-10-18T09:58:34.264Z,11.20
2018-10-18T10:01:07.905Z,10.10
2018-10-18T10:03:35.991Z,7.13
2018-10-18T10:06:04.215Z,10.83
2018-10-18T10:08:32.368Z,7.63
2018-10-18T10:11:00.518Z,6.83
2018-10-18T10:13:28.760Z,8.57
2018-10-18T10:15:56.819Z,8.50
2018-10-18T10:18:24.967Z,7.23
2018-10-18T10:20:53.106Z,4.70
2018-10-18T10:23:21.242Z,6.23
2018-10-18T10:25:49.384Z,10.07
2018-10-18T10:28:17.562Z,12.77
2018-10-18T10:30:45.738Z,7.83
2018-10-18T10:33:13.902Z,9.20
2018-10-18T10:35:42.051Z,7.13
2018-10-18T10:38:10.143Z,6.63
2018-10-18T10:40:38.275Z,7.53
2018-10-18T10:43:06.487Z,5.87
2018-10-18T10:45:34.630Z,7.27
2018-10-18T10:48:02.869Z,6.30
2018-10-18T10:50:30.983Z,7.80
2018-10-18T10:52:59.127Z,5.93
2018-10-18T10:55:27.257Z,7.60
2018-10-18T10:57:55.438Z,4.87
2018-10-18T11:01:28.212Z,3.83
2018-10-18T11:03:59.462Z,5.47
2018-10-18T11:06:27.599Z,3.93
2018-10-18T11:08:55.861Z,3.70
2018-10-18T11:11:24.342Z,4.63
2018-10-18T11:13:52.496Z,4.60
2018-10-18T11:16:20.624Z,3.03
2018-10-18T11:18:48.762Z,4.40
2018-10-18T11:21:18.015Z,5.40
2018-10-18T11:23:46.115Z,4.50
2018-10-18T11:26:14.429Z,12.40
2018-10-18T11:28:42.417Z,7.53
2018-10-18T11:31:10.561Z,6.87
2018-10-18T11:33:38.736Z,12.00
2018-10-18T11:36:06.976Z,6.40
2018-10-18T11:38:35.011Z,7.90
2018-10-18T11:41:03.202Z,6.67
2018-10-18T11:43:31.362Z,6.33
2018-10-18T11:45:59.536Z,6.70
2018-10-18T11:48:27.695Z,5.23
2018-10-18T11:50:55.848Z,8.80
2018-10-18T11:53:23.982Z,6.67
2018-10-18T11:55:52.158Z,12.10
2018-10-18T11:58:20.275Z,5.60
2018-10-18T12:00:48.470Z,11.10
2018-10-18T12:03:16.719Z,8.00
2018-10-18T12:05:44.900Z,14.63
2018-10-18T12:08:13.293Z,13.53
2018-10-18T12:10:41.201Z,8.43
2018-10-18T12:13:09.347Z,11.60
2018-10-18T12:15:37.565Z,12.13
2018-10-18T12:18:05.770Z,8.00
2018-10-18T12:20:33.942Z,5.33
2018-10-18T12:23:02.120Z,3.70
2018-10-18T12:25:30.270Z,2.60
2018-10-18T12:27:58.434Z,3.90
2018-10-18T12:30:26.624Z,6.83
2018-10-18T12:32:54.778Z,4.33
2018-10-18T12:35:22.940Z,3.67
2018-10-18T12:37:51.094Z,2.90
2018-10-18T12:40:19.384Z,3.33
2018-10-18T12:42:48.607Z,2.80
2018-10-18T12:45:16.797Z,3.00
2018-10-18T12:47:44.958Z,3.70
2018-10-18T12:50:13.205Z,2.27
2018-10-18T12:52:41.291Z,4.30
2018-10-18T12:55:09.484Z,4.67
2018-10-18T12:57:37.725Z,5.80
2018-10-18T13:00:07.542Z,4.20
2018-10-18T13:02:35.661Z,3.53
2018-10-18T13:05:04.028Z,4.10
2018-10-18T13:07:32.194Z,5.57
2018-10-18T13:10:00.366Z,5.27
2018-10-18T13:12:28.655Z,3.70
2018-10-18T13:14:56.737Z,3.70
2018-10-18T13:17:24.903Z,4.47
2018-10-18T13:19:53.086Z,3.87
2018-10-18T13:22:21.218Z,4.67
2018-10-18T13:24:49.359Z,3.80
2018-10-18T13:27:17.505Z,5.00
2018-10-18T13:29:45.655Z,3.87
2018-10-18T13:32:13.944Z,5.33
2018-10-18T13:34:42.087Z,10.13
2018-10-18T13:37:10.253Z,4.23
2018-10-18T13:39:38.394Z,6.43
2018-10-18T13:42:06.641Z,7.00
2018-10-18T13:44:34.721Z,4.70
2018-10-18T13:47:02.884Z,4.20
2018-10-18T13:49:31.065Z,4.47
2018-10-18T13:51:59.294Z,4.77
2018-10-18T13:54:27.454Z,4.30
2018-10-18T13:56:55.758Z,4.87
2018-10-18T13:59:35.652Z,6.77
2018-10-18T14:02:03.909Z,4.03
2018-10-18T14:04:31.909Z,3.43
2018-10-18T14:07:00.051Z,5.13
2018-10-18T14:09:28.229Z,2.63
2018-10-18T14:11:56.465Z,3.73
2018-10-18T14:14:24.642Z,3.17
2018-10-18T14:16:52.818Z,4.00
2018-10-18T14:19:20.994Z,4.23
2018-10-18T14:21:49.160Z,3.73
2018-10-18T14:24:17.327Z,3.90
2018-10-18T14:26:45.482Z,3.33
2018-10-18T14:29:13.675Z,4.17
2018-10-18T14:31:41.863Z,4.50
2018-10-18T14:34:10.256Z,3.80
2018-10-18T14:36:38.414Z,4.70
2018-10-18T14:39:07.770Z,4.97
2018-10-18T14:41:36.296Z,4.90
2018-10-18T14:44:04.692Z,4.80
2018-10-18T14:46:32.817Z,4.80
2018-10-18T14:49:01.015Z,3.03
2018-10-18T14:51:29.174Z,3.43
2018-10-18T14:53:57.352Z,5.10
2018-10-18T14:56:25.815Z,5.07
2018-10-18T14:58:53.971Z,4.67
2018-10-18T15:01:22.118Z,4.60
2018-10-18T15:03:50.274Z,4.60
2018-10-18T15:06:18.484Z,5.23
2018-10-18T15:08:46.649Z,4.20
2018-10-18T15:11:14.968Z,6.90
2018-10-18T15:13:43.040Z,5.57
2018-10-18T15:16:11.229Z,5.40
2018-10-18T15:18:39.418Z,6.30
2018-10-18T15:21:07.797Z,5.30
2018-10-18T15:23:35.967Z,3.43
2018-10-18T15:26:05.277Z,4.57
2018-10-18T15:28:33.430Z,3.63
2018-10-18T15:31:01.636Z,7.70
2018-10-18T15:33:29.815Z,6.30
2018-10-18T15:35:58.007Z,4.40
2018-10-18T15:38:26.340Z,5.23
2018-10-18T15:40:54.437Z,5.23
2018-10-18T15:43:22.585Z,8.73
2018-10-18T15:45:50.750Z,6.03
2018-10-18T15:48:19.087Z,3.97
2018-10-18T15:50:47.246Z,3.50
2018-10-18T15:53:15.469Z,3.83
2018-10-18T15:55:43.575Z,8.13
2018-10-18T15:58:11.755Z,11.00
2018-10-18T16:00:39.923Z,7.57
2018-10-18T16:03:08.147Z,3.97
2018-10-18T16:05:36.277Z,8.50
2018-10-18T16:08:04.679Z,7.07
2018-10-18T16:10:32.834Z,4.57
2018-10-18T16:13:01.283Z,9.77
2018-10-18T16:15:29.450Z,11.70
2018-10-18T16:17:57.767Z,10.60
2018-10-18T16:20:25.807Z,10.37
2018-10-18T16:22:54.026Z,8.80
2018-10-18T16:25:22.159Z,9.27
2018-10-18T16:27:50.325Z,10.33
2018-10-18T16:30:18.479Z,10.67
2018-10-18T16:32:46.663Z,14.10
2018-10-18T16:35:14.837Z,10.60
2018-10-18T16:37:42.972Z,11.40
2018-10-18T16:40:11.155Z,8.07
2018-10-18T16:42:39.354Z,13.00
2018-10-18T16:45:09.346Z,11.40
2018-10-18T16:47:37.549Z,11.70
2018-10-18T16:50:05.708Z,11.90
2018-10-18T16:52:33.900Z,13.73
2018-10-18T16:55:02.068Z,16.20
2018-10-18T16:57:30.295Z,11.53
2018-10-18T16:59:58.464Z,12.20
2018-10-18T17:02:26.591Z,13.77
2018-10-18T17:04:54.743Z,10.03
2018-10-18T17:07:22.905Z,8.83
2018-10-18T17:09:51.091Z,12.73
2018-10-18T17:12:19.377Z,9.80
2018-10-18T17:14:47.478Z,12.90
2018-10-18T17:17:15.641Z,15.47
2018-10-18T17:19:43.854Z,14.23
2018-10-18T17:22:12.050Z,9.47
2018-10-18T17:24:40.246Z,13.13
2018-10-18T17:27:08.527Z,12.60
2018-10-18T17:29:36.595Z,7.90
2018-10-18T17:32:04.833Z,13.00
2018-10-18T17:34:33.031Z,12.03
2018-10-18T17:37:01.200Z,9.33
2018-10-18T17:39:29.436Z,12.60
2018-10-18T17:41:57.735Z,9.63
2018-10-18T17:44:25.819Z,14.37
2018-10-18T17:46:53.990Z,10.20
2018-10-18T17:49:22.179Z,11.13
2018-10-18T17:51:50.368Z,8.30
2018-10-18T17:54:18.615Z,6.70
2018-10-18T17:56:46.710Z,7.53
2018-10-18T17:59:14.878Z,4.70
2018-10-18T18:01:43.202Z,8.17
2018-10-18T18:04:11.486Z,7.23
2018-10-18T18:06:39.757Z,12.87
2018-10-18T18:09:07.784Z,11.30
2018-10-18T18:11:35.987Z,8.77
2018-10-18T18:14:04.165Z,8.67
2018-10-18T18:16:32.512Z,9.27
2018-10-18T18:19:01.062Z,14.37
2018-10-18T18:21:29.229Z,10.43
2018-10-18T18:23:57.390Z,10.60
2018-10-18T18:26:32.602Z,9.17
2018-10-18T18:28:53.737Z,11.20
2018-10-18T18:31:21.975Z,12.10
2018-10-18T18:33:50.135Z,9.20
2018-10-18T18:36:18.366Z,10.00
2018-10-18T18:38:46.577Z,12.30
2018-10-18T18:41:14.805Z,11.20
2018-10-18T18:43:42.945Z,10.93
2018-10-18T18:46:11.109Z,15.40
2018-10-18T18:48:39.327Z,14.13
2018-10-18T18:51:07.600Z,11.03
2018-10-18T18:53:35.823Z,9.70
2018-10-18T18:56:04.103Z,18.50
2018-10-18T18:58:32.275Z,10.83
2018-10-18T19:01:00.492Z,12.47
2018-10-18T19:03:28.736Z,10.20
2018-10-18T19:05:56.889Z,11.90
2018-10-18T19:08:25.059Z,13.17
2018-10-18T19:10:53.258Z,9.80
2018-10-18T19:13:21.572Z,20.80
2018-10-18T19:15:49.703Z,11.33
2018-10-18T19:18:17.859Z,10.57
2018-10-18T19:20:46.015Z,7.40
2018-10-18T19:23:14.238Z,9.67
2018-10-18T19:25:42.359Z,10.03
2018-10-18T19:28:10.524Z,6.70
2018-10-18T19:30:38.662Z,9.30
2018-10-18T19:33:06.803Z,9.73
2018-10-18T19:35:34.971Z,13.87
2018-10-18T19:38:03.153Z,13.63
2018-10-18T19:40:31.295Z,9.97
2018-10-18T19:42:59.442Z,9.03
2018-10-18T19:45:27.669Z,12.97
2018-10-18T19:47:55.785Z,10.40
2018-10-18T19:50:23.985Z,6.30
2018-10-18T19:52:52.360Z,10.03
2018-10-18T19:55:20.469Z,9.97
2018-10-18T19:57:48.627Z,9.17
2018-10-18T20:00:16.829Z,10.77
2018-10-18T20:02:44.966Z,10.40
2018-10-18T20:05:13.124Z,13.93
2018-10-18T20:07:41.380Z,10.10
2018-10-18T20:10:09.878Z,11.17
2018-10-18T20:12:38.056Z,8.70
2018-10-18T20:15:06.547Z,8.90
2018-10-18T20:17:34.695Z,12.13
2018-10-18T20:20:03.288Z,9.93
2018-10-18T20:22:31.419Z,7.43
2018-10-18T20:24:59.714Z,9.70
2018-10-18T20:27:27.742Z,11.27
2018-10-18T20:29:55.936Z,7.97
2018-10-18T20:32:24.094Z,8.10
2018-10-18T20:34:52.213Z,9.43
2018-10-18T20:37:20.367Z,14.17
2018-10-18T20:39:48.592Z,9.03
2018-10-18T20:42:16.681Z,10.87
2018-10-18T20:44:44.851Z,15.73
2018-10-18T20:47:13.185Z,8.50
2018-10-18T20:49:41.362Z,8.03
2018-10-18T20:52:09.634Z,10.80
2018-10-18T20:54:37.794Z,13.47
2018-10-18T20:57:06.168Z,10.27
2018-10-18T20:59:34.397Z,11.40
2018-10-18T21:02:02.571Z,10.53
2018-10-18T21:04:30.730Z,9.47
2018-10-18T21:06:58.877Z,13.00
2018-10-18T21:09:27.039Z,9.37
2018-10-18T21:11:55.199Z,9.70
2018-10-18T21:14:23.378Z,6.17
2018-10-18T21:16:51.560Z,8.73
2018-10-18T21:19:19.711Z,10.00
2018-10-18T21:21:47.899Z,11.73
2018-10-18T21:24:16.042Z,10.47
2018-10-18T21:26:44.202Z,10.40
2018-10-18T21:29:12.529Z,10.50
2018-10-18T21:31:40.547Z,10.83
2018-10-18T21:34:08.731Z,7.40
2018-10-18T21:36:36.874Z,9.20
2018-10-18T21:39:06.518Z,10.43
2018-10-18T21:41:34.673Z,10.70
2018-10-18T21:44:02.870Z,7.40
2018-10-18T21:46:31.041Z,9.67
2018-10-18T21:48:59.267Z,10.50
2018-10-18T21:51:27.387Z,9.63
2018-10-18T21:53:55.555Z,10.80
2018-10-18T21:56:23.718Z,9.40
2018-10-18T21:58:51.901Z,12.27
2018-10-18T22:01:20.062Z,7.43
2018-10-18T22:03:48.230Z,8.53
2018-10-18T22:06:16.402Z,9.30
2018-10-18T22:08:44.590Z,11.47
2018-10-18T22:11:12.862Z,12.20
2018-10-18T22:13:40.927Z,10.23
2018-10-18T22:16:09.111Z,12.07
2018-10-18T22:18:37.271Z,12.80
2018-10-18T22:21:05.798Z,7.67
2018-10-18T22:23:33.966Z,10.57
2018-10-18T22:26:02.159Z,13.50
2018-10-18T22:28:30.323Z,11.50
2018-10-18T22:30:58.495Z,14.63
2018-10-18T22:33:26.692Z,15.17
2018-10-18T22:35:55.123Z,13.23
2018-10-18T22:38:23.298Z,11.00
2018-10-18T22:40:51.476Z,14.30
2018-10-18T22:43:19.638Z,16.60
2018-10-18T22:45:53.963Z,17.47
2018-10-18T22:48:22.118Z,10.67
2018-10-18T22:50:50.292Z,14.43
2018-10-18T22:53:18.460Z,15.07
2018-10-18T22:55:46.630Z,12.87
2018-10-18T22:58:14.791Z,13.03
2018-10-18T23:00:47.444Z,13.40
2018-10-18T23:03:16.381Z,16.17
2018-10-18T23:05:44.867Z,11.80
2018-10-18T23:08:13.314Z,14.57
2018-10-18T23:10:41.481Z,14.30
2018-10-18T23:13:09.783Z,11.60
2018-10-18T23:15:37.950Z,14.23
2018-10-18T23:18:06.534Z,15.93
2018-10-18T23:20:34.701Z,12.63
2018-10-18T23:23:02.943Z,17.37
2018-10-18T23:25:31.046Z,13.00
2018-10-18T23:27:59.215Z,12.20
2018-10-18T23:30:27.374Z,16.67
2018-10-18T23:32:55.715Z,14.83
2018-10-18T23:35:23.881Z,14.43
2018-10-18T23:37:52.078Z,16.83
2018-10-18T23:40:20.430Z,16.93
2018-10-18T23:42:48.611Z,14.47
2018-10-18T23:45:16.845Z,14.00
2018-10-18T23:47:44.947Z,16.30
2018-10-18T23:50:13.119Z,18.07
2018-10-18T23:52:41.294Z,14.37
2018-10-18T23:55:09.468Z,16.27
2018-10-18T23:57:37.640Z,13.53
